sensor_id;sensor_type;location;lat;lon;timestamp;temperature;humidity
66422;DHT22;53228;51.380;0.098;2024-03-02T00:00:41;2.70;99.90
66422;DHT22;53228;51.380;0.098;2024-03-02T00:03:09;3.20;99.90
66422;DHT22;53228;51.380;0.098;2024-03-02T00:05:40;3.40;99.90
66422;DHT22;53228;51.380;0.098;2024-03-02T00:08:07;3.10;99.90
66422;DHT22;53228;51.380;0.098;2024-03-02T00:10:39;4.00;99.90
66422;DHT22;53228;51.380;0.098;2024-03-02T00:13:08;4.00;99.90
66422;DHT22;53228;51.380;0.098;2024-03-02T00:15:56;3.90;99.90
66422;DHT22;53228;51.380;0.098;2024-03-02T00:18:32;3.50;99.90
66422;DHT22;53228;51.380;0.098;2024-03-02T00:21:00;3.20;99.90
66422;DHT22;53228;51.380;0.098;2024-03-02T00:23:30;3.80;99.90
66422;DHT22;53228;51.380;0.098;2024-03-02T00:25:59;3.30;99.90
66422;DHT22;53228;51.380;0.098;2024-03-02T00:28:36;3.80;99.90
66422;DHT22;53228;51.380;0.098;2024-03-02T00:31:11;3.70;99.90
66422;DHT22;53228;51.380;0.098;2024-03-02T00:33:45;3.50;99.90
66422;DHT22;53228;51.380;0.098;2024-03-02T00:36:22;3.70;99.90
66422;DHT22;53228;51.380;0.098;2024-03-02T00:38:53;4.00;99.90
66422;DHT22;53228;51.380;0.098;2024-03-02T00:41:31;3.30;99.90
66422;DHT22;53228;51.380;0.098;2024-03-02T00:44:15;3.70;99.90
66422;DHT22;53228;51.380;0.098;2024-03-02T00:46:43;4.00;99.90
66422;DHT22;53228;51.380;0.098;2024-03-02T00:49:18;4.30;99.90
66422;DHT22;53228;51.380;0.098;2024-03-02T00:51:50;3.80;99.90
66422;DHT22;53228;51.380;0.098;2024-03-02T00:54:22;3.10;99.90
66422;DHT22;53228;51.380;0.098;2024-03-02T00:56:52;4.30;99.90
66422;DHT22;53228;51.380;0.098;2024-03-02T00:59:23;4.20;99.90
66422;DHT22;53228;51.380;0.098;2024-03-02T01:01:50;6.90;99.90
66422;DHT22;53228;51.380;0.098;2024-03-02T01:04:19;3.80;99.90
66422;DHT22;53228;51.380;0.098;2024-03-02T01:06:46;3.70;99.90
66422;DHT22;53228;51.380;0.098;2024-03-02T01:09:14;3.40;99.90
66422;DHT22;53228;51.380;0.098;2024-03-02T01:11:42;4.60;99.90
66422;DHT22;53228;51.380;0.098;2024-03-02T01:14:10;3.80;99.90
66422;DHT22;53228;51.380;0.098;2024-03-02T01:16:37;4.20;99.90
66422;DHT22;53228;51.380;0.098;2024-03-02T01:19:05;3.80;99.90
66422;DHT22;53228;51.380;0.098;2024-03-02T01:21:33;3.60;99.90
66422;DHT22;53228;51.380;0.098;2024-03-02T01:24:01;3.80;99.90
66422;DHT22;53228;51.380;0.098;2024-03-02T01:26:28;3.80;99.90
66422;DHT22;53228;51.380;0.098;2024-03-02T01:28:56;3.80;99.90
66422;DHT22;53228;51.380;0.098;2024-03-02T01:31:24;4.50;99.90
66422;DHT22;53228;51.380;0.098;2024-03-02T01:33:51;4.20;99.90
66422;DHT22;53228;51.380;0.098;2024-03-02T01:36:19;3.80;99.90
66422;DHT22;53228;51.380;0.098;2024-03-02T01:38:47;3.80;99.90
66422;DHT22;53228;51.380;0.098;2024-03-02T01:41:14;3.80;99.90
66422;DHT22;53228;51.380;0.098;2024-03-02T01:43:42;3.90;99.90
66422;DHT22;53228;51.380;0.098;2024-03-02T01:46:10;3.10;99.90
66422;DHT22;53228;51.380;0.098;2024-03-02T01:48:38;4.20;99.90
66422;DHT22;53228;51.380;0.098;2024-03-02T01:51:06;3.50;99.90
66422;DHT22;53228;51.380;0.098;2024-03-02T01:53:34;4.80;99.90
66422;DHT22;53228;51.380;0.098;2024-03-02T01:56:02;3.80;99.90
66422;DHT22;53228;51.380;0.098;2024-03-02T01:58:30;4.10;99.90
66422;DHT22;53228;51.380;0.098;2024-03-02T02:00:58;3.90;99.90
66422;DHT22;53228;51.380;0.098;2024-03-02T02:03:25;3.80;99.90
66422;DHT22;53228;51.380;0.098;2024-03-02T02:05:53;3.80;99.90
66422;DHT22;53228;51.380;0.098;2024-03-02T02:08:23;4.80;99.90
66422;DHT22;53228;51.380;0.098;2024-03-02T02:10:51;3.40;99.90
66422;DHT22;53228;51.380;0.098;2024-03-02T02:13:19;4.80;99.90
66422;DHT22;53228;51.380;0.098;2024-03-02T02:15:47;3.80;99.90
66422;DHT22;53228;51.380;0.098;2024-03-02T02:18:15;4.30;99.90
66422;DHT22;53228;51.380;0.098;2024-03-02T02:23:10;3.50;99.90
66422;DHT22;53228;51.380;0.098;2024-03-02T02:25:40;3.50;99.90
66422;DHT22;53228;51.380;0.098;2024-03-02T02:28:07;4.20;99.90
66422;DHT22;53228;51.380;0.098;2024-03-02T02:30:35;3.70;99.90
66422;DHT22;53228;51.380;0.098;2024-03-02T02:33:03;4.80;99.90
66422;DHT22;53228;51.380;0.098;2024-03-02T02:35:30;4.30;99.90
66422;DHT22;53228;51.380;0.098;2024-03-02T02:37:58;4.90;99.90
66422;DHT22;53228;51.380;0.098;2024-03-02T02:40:27;4.30;99.90
66422;DHT22;53228;51.380;0.098;2024-03-02T02:42:58;4.00;99.90
66422;DHT22;53228;51.380;0.098;2024-03-02T02:45:29;3.90;99.90
66422;DHT22;53228;51.380;0.098;2024-03-02T02:47:57;3.40;99.90
66422;DHT22;53228;51.380;0.098;2024-03-02T02:50:25;3.40;99.90
66422;DHT22;53228;51.380;0.098;2024-03-02T02:52:53;4.10;99.90
66422;DHT22;53228;51.380;0.098;2024-03-02T02:55:20;4.70;99.90
66422;DHT22;53228;51.380;0.098;2024-03-02T02:57:48;4.50;99.90
66422;DHT22;53228;51.380;0.098;2024-03-02T03:00:16;3.90;99.90
66422;DHT22;53228;51.380;0.098;2024-03-02T03:02:48;3.70;99.90
66422;DHT22;53228;51.380;0.098;2024-03-02T03:05:19;4.00;99.90
66422;DHT22;53228;51.380;0.098;2024-03-02T03:07:47;4.50;99.90
66422;DHT22;53228;51.380;0.098;2024-03-02T03:10:17;3.50;99.90
66422;DHT22;53228;51.380;0.098;2024-03-02T03:15:14;4.40;99.90
66422;DHT22;53228;51.380;0.098;2024-03-02T03:17:44;3.80;99.90
66422;DHT22;53228;51.380;0.098;2024-03-02T03:20:13;3.70;99.90
66422;DHT22;53228;51.380;0.098;2024-03-02T03:22:42;3.80;99.90
66422;DHT22;53228;51.380;0.098;2024-03-02T03:25:11;4.10;99.90
66422;DHT22;53228;51.380;0.098;2024-03-02T03:27:41;3.70;99.90
66422;DHT22;53228;51.380;0.098;2024-03-02T03:30:10;3.40;99.90
66422;DHT22;53228;51.380;0.098;2024-03-02T03:32:38;4.00;99.90
66422;DHT22;53228;51.380;0.098;2024-03-02T03:35:06;3.90;99.90
66422;DHT22;53228;51.380;0.098;2024-03-02T03:37:34;3.20;99.90
66422;DHT22;53228;51.380;0.098;2024-03-02T03:40:02;3.50;99.90
66422;DHT22;53228;51.380;0.098;2024-03-02T03:42:37;3.10;99.90
66422;DHT22;53228;51.380;0.098;2024-03-02T03:45:07;3.70;99.90
66422;DHT22;53228;51.380;0.098;2024-03-02T03:47:34;4.00;99.90
66422;DHT22;53228;51.380;0.098;2024-03-02T03:50:02;2.80;99.90
66422;DHT22;53228;51.380;0.098;2024-03-02T03:52:34;3.30;99.90
66422;DHT22;53228;51.380;0.098;2024-03-02T03:55:01;3.70;99.90
66422;DHT22;53228;51.380;0.098;2024-03-02T03:57:29;3.40;99.90
66422;DHT22;53228;51.380;0.098;2024-03-02T03:59:57;3.60;99.90
66422;DHT22;53228;51.380;0.098;2024-03-02T04:02:25;3.40;99.90
66422;DHT22;53228;51.380;0.098;2024-03-02T04:04:54;4.10;99.90
66422;DHT22;53228;51.380;0.098;2024-03-02T04:07:21;4.10;99.90
66422;DHT22;53228;51.380;0.098;2024-03-02T04:09:49;4.00;99.90
66422;DHT22;53228;51.380;0.098;2024-03-02T04:12:17;3.70;99.90
66422;DHT22;53228;51.380;0.098;2024-03-02T04:14:45;3.90;99.90
66422;DHT22;53228;51.380;0.098;2024-03-02T04:19:40;4.20;99.90
66422;DHT22;53228;51.380;0.098;2024-03-02T04:22:08;3.80;99.90
66422;DHT22;53228;51.380;0.098;2024-03-02T04:24:47;3.30;99.90
66422;DHT22;53228;51.380;0.098;2024-03-02T04:27:15;3.70;99.90
66422;DHT22;53228;51.380;0.098;2024-03-02T04:29:43;3.40;99.90
66422;DHT22;53228;51.380;0.098;2024-03-02T04:32:10;4.20;99.90
66422;DHT22;53228;51.380;0.098;2024-03-02T04:34:38;4.50;99.90
66422;DHT22;53228;51.380;0.098;2024-03-02T04:37:06;3.80;99.90
66422;DHT22;53228;51.380;0.098;2024-03-02T04:39:35;3.40;99.90
66422;DHT22;53228;51.380;0.098;2024-03-02T04:42:03;3.80;99.90
66422;DHT22;53228;51.380;0.098;2024-03-02T04:44:31;4.40;99.90
66422;DHT22;53228;51.380;0.098;2024-03-02T04:46:58;3.90;99.90
66422;DHT22;53228;51.380;0.098;2024-03-02T04:49:26;3.50;99.90
66422;DHT22;53228;51.380;0.098;2024-03-02T04:51:54;3.30;99.90
66422;DHT22;53228;51.380;0.098;2024-03-02T04:54:22;4.70;99.90
66422;DHT22;53228;51.380;0.098;2024-03-02T04:56:49;3.80;99.90
66422;DHT22;53228;51.380;0.098;2024-03-02T04:59:18;3.30;99.90
66422;DHT22;53228;51.380;0.098;2024-03-02T05:01:46;3.20;99.90
66422;DHT22;53228;51.380;0.098;2024-03-02T05:04:15;4.20;99.90
66422;DHT22;53228;51.380;0.098;2024-03-02T05:09:10;3.60;99.90
66422;DHT22;53228;51.380;0.098;2024-03-02T05:11:38;3.30;99.90
66422;DHT22;53228;51.380;0.098;2024-03-02T05:14:06;3.70;99.90
66422;DHT22;53228;51.380;0.098;2024-03-02T05:16:35;3.30;99.90
66422;DHT22;53228;51.380;0.098;2024-03-02T05:19:02;4.30;99.90
66422;DHT22;53228;51.380;0.098;2024-03-02T05:21:30;3.80;99.90
66422;DHT22;53228;51.380;0.098;2024-03-02T05:23:58;3.70;99.90
66422;DHT22;53228;51.380;0.098;2024-03-02T05:26:25;3.70;99.90
66422;DHT22;53228;51.380;0.098;2024-03-02T05:28:53;2.90;99.90
66422;DHT22;53228;51.380;0.098;2024-03-02T05:31:21;4.10;99.90
66422;DHT22;53228;51.380;0.098;2024-03-02T05:33:48;4.20;99.90
66422;DHT22;53228;51.380;0.098;2024-03-02T05:36:21;3.40;99.90
66422;DHT22;53228;51.380;0.098;2024-03-02T05:38:48;3.80;99.90
66422;DHT22;53228;51.380;0.098;2024-03-02T05:41:16;3.90;99.90
66422;DHT22;53228;51.380;0.098;2024-03-02T05:43:43;4.10;99.90
66422;DHT22;53228;51.380;0.098;2024-03-02T05:46:11;4.10;99.90
66422;DHT22;53228;51.380;0.098;2024-03-02T05:48:39;3.30;99.90
66422;DHT22;53228;51.380;0.098;2024-03-02T05:51:07;3.80;99.90
66422;DHT22;53228;51.380;0.098;2024-03-02T05:53:34;4.10;99.90
66422;DHT22;53228;51.380;0.098;2024-03-02T05:56:05;3.70;99.90
66422;DHT22;53228;51.380;0.098;2024-03-02T05:58:33;3.90;99.90
66422;DHT22;53228;51.380;0.098;2024-03-02T06:01:01;3.30;99.90
66422;DHT22;53228;51.380;0.098;2024-03-02T06:03:29;3.20;99.90
66422;DHT22;53228;51.380;0.098;2024-03-02T06:05:56;4.10;99.90
66422;DHT22;53228;51.380;0.098;2024-03-02T06:08:24;3.70;99.90
66422;DHT22;53228;51.380;0.098;2024-03-02T06:10:51;3.90;99.90
66422;DHT22;53228;51.380;0.098;2024-03-02T06:13:19;3.40;99.90
66422;DHT22;53228;51.380;0.098;2024-03-02T06:15:47;4.20;99.90
66422;DHT22;53228;51.380;0.098;2024-03-02T06:18:15;2.70;99.90
66422;DHT22;53228;51.380;0.098;2024-03-02T06:20:42;3.50;99.90
66422;DHT22;53228;51.380;0.098;2024-03-02T06:23:10;3.90;99.90
66422;DHT22;53228;51.380;0.098;2024-03-02T06:25:37;3.00;99.90
66422;DHT22;53228;51.380;0.098;2024-03-02T06:28:05;3.60;99.90
66422;DHT22;53228;51.380;0.098;2024-03-02T06:30:33;4.00;99.90
66422;DHT22;53228;51.380;0.098;2024-03-02T06:33:01;4.50;99.90
66422;DHT22;53228;51.380;0.098;2024-03-02T06:35:28;3.70;99.90
66422;DHT22;53228;51.380;0.098;2024-03-02T06:37:56;3.40;99.90
66422;DHT22;53228;51.380;0.098;2024-03-02T06:40:23;3.20;99.90
66422;DHT22;53228;51.380;0.098;2024-03-02T06:42:51;3.20;99.90
66422;DHT22;53228;51.380;0.098;2024-03-02T06:45:19;3.40;99.90
66422;DHT22;53228;51.380;0.098;2024-03-02T06:47:46;4.00;99.90
66422;DHT22;53228;51.380;0.098;2024-03-02T06:50:14;4.00;99.90
66422;DHT22;53228;51.380;0.098;2024-03-02T06:52:42;3.60;99.90
66422;DHT22;53228;51.380;0.098;2024-03-02T06:55:11;4.10;99.90
66422;DHT22;53228;51.380;0.098;2024-03-02T06:57:38;3.40;99.90
66422;DHT22;53228;51.380;0.098;2024-03-02T07:00:06;4.30;99.90
66422;DHT22;53228;51.380;0.098;2024-03-02T07:02:36;3.30;99.90
66422;DHT22;53228;51.380;0.098;2024-03-02T07:05:04;3.80;99.90
66422;DHT22;53228;51.380;0.098;2024-03-02T07:07:32;3.80;99.90
66422;DHT22;53228;51.380;0.098;2024-03-02T07:10:00;3.80;99.90
66422;DHT22;53228;51.380;0.098;2024-03-02T07:12:28;3.60;99.90
66422;DHT22;53228;51.380;0.098;2024-03-02T07:14:56;3.70;99.90
66422;DHT22;53228;51.380;0.098;2024-03-02T07:17:38;4.00;99.90
66422;DHT22;53228;51.380;0.098;2024-03-02T07:20:06;3.90;99.90
66422;DHT22;53228;51.380;0.098;2024-03-02T07:22:34;3.60;99.90
66422;DHT22;53228;51.380;0.098;2024-03-02T07:25:02;4.00;99.90
66422;DHT22;53228;51.380;0.098;2024-03-02T07:27:31;3.50;99.90
66422;DHT22;53228;51.380;0.098;2024-03-02T07:32:27;4.20;99.90
66422;DHT22;53228;51.380;0.098;2024-03-02T07:34:55;3.10;99.90
66422;DHT22;53228;51.380;0.098;2024-03-02T07:37:23;3.10;99.90
66422;DHT22;53228;51.380;0.098;2024-03-02T07:39:51;3.10;99.90
66422;DHT22;53228;51.380;0.098;2024-03-02T07:42:19;3.60;99.90
66422;DHT22;53228;51.380;0.098;2024-03-02T07:44:47;2.20;99.90
66422;DHT22;53228;51.380;0.098;2024-03-02T07:47:14;4.30;99.90
66422;DHT22;53228;51.380;0.098;2024-03-02T07:52:10;3.80;99.90
66422;DHT22;53228;51.380;0.098;2024-03-02T07:54:37;3.10;99.90
66422;DHT22;53228;51.380;0.098;2024-03-02T07:57:05;3.70;99.90
66422;DHT22;53228;51.380;0.098;2024-03-02T07:59:33;3.10;99.90
66422;DHT22;53228;51.380;0.098;2024-03-02T08:02:00;3.20;99.90
66422;DHT22;53228;51.380;0.098;2024-03-02T08:04:28;4.70;99.90
66422;DHT22;53228;51.380;0.098;2024-03-02T08:06:56;3.80;99.90
66422;DHT22;53228;51.380;0.098;2024-03-02T08:09:24;3.40;99.90
66422;DHT22;53228;51.380;0.098;2024-03-02T08:11:53;4.50;99.90
66422;DHT22;53228;51.380;0.098;2024-03-02T08:14:20;4.20;99.90
66422;DHT22;53228;51.380;0.098;2024-03-02T08:16:48;4.60;99.90
66422;DHT22;53228;51.380;0.098;2024-03-02T08:19:16;3.40;99.90
66422;DHT22;53228;51.380;0.098;2024-03-02T08:24:12;3.20;99.90
66422;DHT22;53228;51.380;0.098;2024-03-02T08:26:40;3.30;99.90
66422;DHT22;53228;51.380;0.098;2024-03-02T08:29:07;4.40;99.90
66422;DHT22;53228;51.380;0.098;2024-03-02T08:31:35;3.20;99.90
66422;DHT22;53228;51.380;0.098;2024-03-02T08:34:05;3.20;99.90
66422;DHT22;53228;51.380;0.098;2024-03-02T08:36:33;3.70;99.90
66422;DHT22;53228;51.380;0.098;2024-03-02T08:39:01;3.20;99.90
66422;DHT22;53228;51.380;0.098;2024-03-02T08:43:57;4.30;99.90
66422;DHT22;53228;51.380;0.098;2024-03-02T08:46:24;3.60;99.90
66422;DHT22;53228;51.380;0.098;2024-03-02T08:48:52;3.20;99.90
66422;DHT22;53228;51.380;0.098;2024-03-02T08:51:20;3.90;99.90
66422;DHT22;53228;51.380;0.098;2024-03-02T08:53:47;3.90;99.90
66422;DHT22;53228;51.380;0.098;2024-03-02T08:56:15;4.10;99.90
66422;DHT22;53228;51.380;0.098;2024-03-02T08:58:43;3.00;99.90
66422;DHT22;53228;51.380;0.098;2024-03-02T09:01:12;2.90;99.90
66422;DHT22;53228;51.380;0.098;2024-03-02T09:03:40;3.90;99.90
66422;DHT22;53228;51.380;0.098;2024-03-02T09:06:07;3.30;99.90
66422;DHT22;53228;51.380;0.098;2024-03-02T09:08:35;2.80;99.90
66422;DHT22;53228;51.380;0.098;2024-03-02T09:11:04;3.60;99.90
66422;DHT22;53228;51.380;0.098;2024-03-02T09:13:32;4.00;99.90
66422;DHT22;53228;51.380;0.098;2024-03-02T09:16:00;3.90;99.90
66422;DHT22;53228;51.380;0.098;2024-03-02T09:18:28;3.80;99.90
66422;DHT22;53228;51.380;0.098;2024-03-02T09:20:55;3.00;99.90
66422;DHT22;53228;51.380;0.098;2024-03-02T09:23:23;3.20;99.90
66422;DHT22;53228;51.380;0.098;2024-03-02T09:25:51;3.30;99.90
66422;DHT22;53228;51.380;0.098;2024-03-02T09:28:19;3.30;99.90
66422;DHT22;53228;51.380;0.098;2024-03-02T09:30:47;3.00;99.90
66422;DHT22;53228;51.380;0.098;2024-03-02T09:33:14;2.60;99.90
66422;DHT22;53228;51.380;0.098;2024-03-02T09:38:12;3.00;99.90
66422;DHT22;53228;51.380;0.098;2024-03-02T09:40:41;2.60;99.90
66422;DHT22;53228;51.380;0.098;2024-03-02T09:43:09;2.60;99.90
66422;DHT22;53228;51.380;0.098;2024-03-02T09:45:37;3.20;99.90
66422;DHT22;53228;51.380;0.098;2024-03-02T09:48:05;3.70;99.90
66422;DHT22;53228;51.380;0.098;2024-03-02T09:50:34;2.70;99.90
66422;DHT22;53228;51.380;0.098;2024-03-02T09:53:01;4.00;99.90
66422;DHT22;53228;51.380;0.098;2024-03-02T09:57:57;4.50;99.90
66422;DHT22;53228;51.380;0.098;2024-03-02T10:00:25;3.40;99.90
66422;DHT22;53228;51.380;0.098;2024-03-02T10:02:53;3.90;99.90
66422;DHT22;53228;51.380;0.098;2024-03-02T10:05:27;3.80;99.90
66422;DHT22;53228;51.380;0.098;2024-03-02T10:08:02;4.20;99.90
66422;DHT22;53228;51.380;0.098;2024-03-02T10:10:40;3.70;99.90
66422;DHT22;53228;51.380;0.098;2024-03-02T10:13:10;4.10;99.90
66422;DHT22;53228;51.380;0.098;2024-03-02T10:15:39;4.80;99.90
66422;DHT22;53228;51.380;0.098;2024-03-02T10:18:11;4.50;99.90
66422;DHT22;53228;51.380;0.098;2024-03-02T10:20:40;4.00;99.90
66422;DHT22;53228;51.380;0.098;2024-03-02T10:23:13;3.70;99.90
66422;DHT22;53228;51.380;0.098;2024-03-02T10:25:42;4.40;99.90
66422;DHT22;53228;51.380;0.098;2024-03-02T10:28:24;4.10;99.90
66422;DHT22;53228;51.380;0.098;2024-03-02T10:30:52;4.90;99.90
66422;DHT22;53228;51.380;0.098;2024-03-02T10:33:21;4.80;99.90
66422;DHT22;53228;51.380;0.098;2024-03-02T10:35:52;4.60;99.90
66422;DHT22;53228;51.380;0.098;2024-03-02T10:38:20;4.50;99.90
66422;DHT22;53228;51.380;0.098;2024-03-02T10:40:48;4.40;99.90
66422;DHT22;53228;51.380;0.098;2024-03-02T10:43:17;5.20;99.90
66422;DHT22;53228;51.380;0.098;2024-03-02T10:45:49;4.80;99.90
66422;DHT22;53228;51.380;0.098;2024-03-02T10:50:46;4.80;99.90
66422;DHT22;53228;51.380;0.098;2024-03-02T10:53:14;5.00;99.90
66422;DHT22;53228;51.380;0.098;2024-03-02T10:55:41;4.60;99.90
66422;DHT22;53228;51.380;0.098;2024-03-02T10:58:12;5.60;99.90
66422;DHT22;53228;51.380;0.098;2024-03-02T11:00:44;5.60;99.90
66422;DHT22;53228;51.380;0.098;2024-03-02T11:03:13;5.50;99.90
66422;DHT22;53228;51.380;0.098;2024-03-02T11:05:44;5.30;99.90
66422;DHT22;53228;51.380;0.098;2024-03-02T11:08:13;5.30;99.90
66422;DHT22;53228;51.380;0.098;2024-03-02T11:10:51;5.40;99.90
66422;DHT22;53228;51.380;0.098;2024-03-02T11:13:27;5.20;99.90
66422;DHT22;53228;51.380;0.098;2024-03-02T11:16:09;5.10;99.90
66422;DHT22;53228;51.380;0.098;2024-03-02T11:18:40;5.30;99.90
66422;DHT22;53228;51.380;0.098;2024-03-02T11:21:09;5.50;99.90
66422;DHT22;53228;51.380;0.098;2024-03-02T11:23:37;5.20;99.90
66422;DHT22;53228;51.380;0.098;2024-03-02T11:28:46;5.90;99.90
66422;DHT22;53228;51.380;0.098;2024-03-02T11:31:13;5.70;99.90
66422;DHT22;53228;51.380;0.098;2024-03-02T11:33:41;5.90;99.90
66422;DHT22;53228;51.380;0.098;2024-03-02T11:36:10;5.20;99.90
66422;DHT22;53228;51.380;0.098;2024-03-02T11:38:43;5.10;99.90
66422;DHT22;53228;51.380;0.098;2024-03-02T11:41:12;5.20;99.90
66422;DHT22;53228;51.380;0.098;2024-03-02T11:43:42;6.40;99.90
66422;DHT22;53228;51.380;0.098;2024-03-02T11:46:11;5.70;99.90
66422;DHT22;53228;51.380;0.098;2024-03-02T11:48:40;5.90;99.90
66422;DHT22;53228;51.380;0.098;2024-03-02T11:51:08;5.80;99.90
66422;DHT22;53228;51.380;0.098;2024-03-02T11:53:38;5.70;99.90
66422;DHT22;53228;51.380;0.098;2024-03-02T11:56:09;6.20;99.90
66422;DHT22;53228;51.380;0.098;2024-03-02T11:58:37;6.00;99.90
66422;DHT22;53228;51.380;0.098;2024-03-02T12:01:06;6.00;99.90
66422;DHT22;53228;51.380;0.098;2024-03-02T12:03:34;6.30;99.90
66422;DHT22;53228;51.380;0.098;2024-03-02T12:06:03;7.00;99.90
66422;DHT22;53228;51.380;0.098;2024-03-02T12:08:31;7.10;99.90
66422;DHT22;53228;51.380;0.098;2024-03-02T12:11:00;7.40;99.90
66422;DHT22;53228;51.380;0.098;2024-03-02T12:13:30;7.70;99.90
66422;DHT22;53228;51.380;0.098;2024-03-02T12:15:59;7.30;99.90
66422;DHT22;53228;51.380;0.098;2024-03-02T12:18:27;7.70;99.90
66422;DHT22;53228;51.380;0.098;2024-03-02T12:20:55;7.40;99.90
66422;DHT22;53228;51.380;0.098;2024-03-02T12:23:25;7.60;99.90
66422;DHT22;53228;51.380;0.098;2024-03-02T12:25:53;8.40;99.90
66422;DHT22;53228;51.380;0.098;2024-03-02T12:28:21;7.70;99.90
66422;DHT22;53228;51.380;0.098;2024-03-02T12:30:49;7.50;99.90
66422;DHT22;53228;51.380;0.098;2024-03-02T12:33:17;7.80;99.90
66422;DHT22;53228;51.380;0.098;2024-03-02T12:35:45;7.80;99.90
66422;DHT22;53228;51.380;0.098;2024-03-02T12:38:14;7.90;99.90
66422;DHT22;53228;51.380;0.098;2024-03-02T12:40:42;7.90;99.90
66422;DHT22;53228;51.380;0.098;2024-03-02T12:43:10;7.90;99.90
66422;DHT22;53228;51.380;0.098;2024-03-02T12:45:38;8.00;99.90
66422;DHT22;53228;51.380;0.098;2024-03-02T12:48:06;8.00;99.90
66422;DHT22;53228;51.380;0.098;2024-03-02T12:50:34;8.00;99.90
66422;DHT22;53228;51.380;0.098;2024-03-02T12:53:02;8.10;99.90
66422;DHT22;53228;51.380;0.098;2024-03-02T12:55:30;8.10;99.90
66422;DHT22;53228;51.380;0.098;2024-03-02T12:57:58;8.20;99.90
66422;DHT22;53228;51.380;0.098;2024-03-02T13:00:27;8.30;99.90
66422;DHT22;53228;51.380;0.098;2024-03-02T13:02:56;8.40;99.90
66422;DHT22;53228;51.380;0.098;2024-03-02T13:05:32;8.50;99.90
66422;DHT22;53228;51.380;0.098;2024-03-02T13:08:00;8.60;99.90
66422;DHT22;53228;51.380;0.098;2024-03-02T13:10:31;8.60;99.90
66422;DHT22;53228;51.380;0.098;2024-03-02T13:13:00;8.50;99.90
66422;DHT22;53228;51.380;0.098;2024-03-02T13:15:28;8.40;99.90
66422;DHT22;53228;51.380;0.098;2024-03-02T13:17:59;8.30;99.90
66422;DHT22;53228;51.380;0.098;2024-03-02T13:20:32;8.20;99.90
66422;DHT22;53228;51.380;0.098;2024-03-02T13:23:01;8.20;99.90
66422;DHT22;53228;51.380;0.098;2024-03-02T13:25:29;8.00;99.90
66422;DHT22;53228;51.380;0.098;2024-03-02T13:28:00;7.90;99.90
66422;DHT22;53228;51.380;0.098;2024-03-02T13:30:28;7.80;99.90
66422;DHT22;53228;51.380;0.098;2024-03-02T13:32:56;7.80;99.90
66422;DHT22;53228;51.380;0.098;2024-03-02T13:35:23;7.80;99.90
66422;DHT22;53228;51.380;0.098;2024-03-02T13:37:51;7.80;99.90
66422;DHT22;53228;51.380;0.098;2024-03-02T13:40:19;8.60;99.90
66422;DHT22;53228;51.380;0.098;2024-03-02T13:42:47;8.00;99.90
66422;DHT22;53228;51.380;0.098;2024-03-02T13:45:16;8.10;99.90
66422;DHT22;53228;51.380;0.098;2024-03-02T13:47:44;8.20;99.90
66422;DHT22;53228;51.380;0.098;2024-03-02T13:50:12;8.20;99.90
66422;DHT22;53228;51.380;0.098;2024-03-02T13:52:40;8.20;99.90
66422;DHT22;53228;51.380;0.098;2024-03-02T13:55:08;8.10;99.90
66422;DHT22;53228;51.380;0.098;2024-03-02T13:57:35;8.10;99.90
66422;DHT22;53228;51.380;0.098;2024-03-02T14:00:04;8.00;99.90
66422;DHT22;53228;51.380;0.098;2024-03-02T14:02:39;8.10;99.90
66422;DHT22;53228;51.380;0.098;2024-03-02T14:05:07;8.80;99.90
66422;DHT22;53228;51.380;0.098;2024-03-02T14:07:38;8.00;99.90
66422;DHT22;53228;51.380;0.098;2024-03-02T14:10:07;8.20;99.90
66422;DHT22;53228;51.380;0.098;2024-03-02T14:12:34;8.00;99.90
66422;DHT22;53228;51.380;0.098;2024-03-02T14:15:02;8.10;99.90
66422;DHT22;53228;51.380;0.098;2024-03-02T14:17:31;8.50;99.90
66422;DHT22;53228;51.380;0.098;2024-03-02T14:20:02;8.20;99.90
66422;DHT22;53228;51.380;0.098;2024-03-02T14:22:32;7.90;99.90
66422;DHT22;53228;51.380;0.098;2024-03-02T14:25:01;8.20;99.90
66422;DHT22;53228;51.380;0.098;2024-03-02T14:27:29;8.20;99.90
66422;DHT22;53228;51.380;0.098;2024-03-02T14:30:17;8.20;99.90
66422;DHT22;53228;51.380;0.098;2024-03-02T14:32:44;8.10;99.90
66422;DHT22;53228;51.380;0.098;2024-03-02T14:35:12;8.00;99.90
66422;DHT22;53228;51.380;0.098;2024-03-02T14:37:40;7.80;99.90
66422;DHT22;53228;51.380;0.098;2024-03-02T14:40:08;7.60;99.90
66422;DHT22;53228;51.380;0.098;2024-03-02T14:42:37;7.60;99.90
66422;DHT22;53228;51.380;0.098;2024-03-02T14:45:05;7.50;99.90
66422;DHT22;53228;51.380;0.098;2024-03-02T14:47:33;7.20;99.90
66422;DHT22;53228;51.380;0.098;2024-03-02T14:50:01;7.20;99.90
66422;DHT22;53228;51.380;0.098;2024-03-02T14:52:36;7.10;99.90
66422;DHT22;53228;51.380;0.098;2024-03-02T14:55:04;6.90;99.90
66422;DHT22;53228;51.380;0.098;2024-03-02T14:57:35;6.90;99.90
66422;DHT22;53228;51.380;0.098;2024-03-02T15:00:03;6.60;99.90
66422;DHT22;53228;51.380;0.098;2024-03-02T15:02:34;6.50;99.90
66422;DHT22;53228;51.380;0.098;2024-03-02T15:05:01;6.40;99.90
66422;DHT22;53228;51.380;0.098;2024-03-02T15:07:30;6.40;99.90
66422;DHT22;53228;51.380;0.098;2024-03-02T15:09:58;6.30;99.90
66422;DHT22;53228;51.380;0.098;2024-03-02T15:12:25;6.20;99.90
66422;DHT22;53228;51.380;0.098;2024-03-02T15:14:53;6.10;99.90
66422;DHT22;53228;51.380;0.098;2024-03-02T15:17:21;6.20;99.90
66422;DHT22;53228;51.380;0.098;2024-03-02T15:19:49;6.20;99.90
66422;DHT22;53228;51.380;0.098;2024-03-02T15:22:17;5.80;99.90
66422;DHT22;53228;51.380;0.098;2024-03-02T15:24:44;6.20;99.90
66422;DHT22;53228;51.380;0.098;2024-03-02T15:27:12;6.30;99.90
66422;DHT22;53228;51.380;0.098;2024-03-02T15:29:40;6.40;99.90
66422;DHT22;53228;51.380;0.098;2024-03-02T15:32:07;6.40;99.90
66422;DHT22;53228;51.380;0.098;2024-03-02T15:34:35;6.40;99.90
66422;DHT22;53228;51.380;0.098;2024-03-02T15:37:03;6.40;99.90
66422;DHT22;53228;51.380;0.098;2024-03-02T15:39:32;6.30;99.90
66422;DHT22;53228;51.380;0.098;2024-03-02T15:42:00;6.90;99.90
66422;DHT22;53228;51.380;0.098;2024-03-02T15:44:28;6.10;99.90
66422;DHT22;53228;51.380;0.098;2024-03-02T15:46:55;6.50;99.90
66422;DHT22;53228;51.380;0.098;2024-03-02T15:49:23;6.50;99.90
66422;DHT22;53228;51.380;0.098;2024-03-02T15:51:51;6.50;99.90
66422;DHT22;53228;51.380;0.098;2024-03-02T15:54:19;6.50;99.90
66422;DHT22;53228;51.380;0.098;2024-03-02T15:56:47;6.70;99.90
66422;DHT22;53228;51.380;0.098;2024-03-02T15:59:15;6.40;99.90
66422;DHT22;53228;51.380;0.098;2024-03-02T16:01:42;6.40;99.90
66422;DHT22;53228;51.380;0.098;2024-03-02T16:04:11;6.40;99.90
66422;DHT22;53228;51.380;0.098;2024-03-02T16:06:39;5.90;99.90
66422;DHT22;53228;51.380;0.098;2024-03-02T16:09:06;6.30;99.90
66422;DHT22;53228;51.380;0.098;2024-03-02T16:11:37;6.20;99.90
66422;DHT22;53228;51.380;0.098;2024-03-02T16:14:05;6.20;99.90
66422;DHT22;53228;51.380;0.098;2024-03-02T16:16:33;6.10;99.90
66422;DHT22;53228;51.380;0.098;2024-03-02T16:19:01;6.10;99.90
66422;DHT22;53228;51.380;0.098;2024-03-02T16:21:40;6.00;99.90
66422;DHT22;53228;51.380;0.098;2024-03-02T16:24:08;6.00;99.90